Time;durP1;ratioP1;P1;durP2;ratioP2;P2;SDS_P1;SDS_P2;PMS_P1;PMS_P2;Temp;Humidity;BMP_temperature;BMP_pressure;BME280_temperature;BME280_humidity;BME280_pressure;Samples;Min_cycle;Max_cycle;Signal;HPM_P1;HPM_P2
2021/12/13 00:00:23;;;;;;;242.73;50.40;;;;;;;;;;5040901;23;20207;-76
2021/12/13 00:03:09;;;;;;;243.50;49.07;;;;;;;;;;5004929;23;20272;-80
2021/12/13 00:05:45;;;;;;;245.83;48.53;;;;;;;;;;5027898;23;20273;-80
2021/12/13 00:08:14;;;;;;;209.97;45.63;;;;;;;;;;5029786;23;21467;-78
2021/12/13 00:10:43;;;;;;;250.87;50.70;;;;;;;;;;4991040;23;20220;-79
2021/12/13 00:13:16;;;;;;;257.40;49.53;;;;;;;;;;5023073;23;20227;-79
2021/12/13 00:15:45;;;;;;;256.77;50.03;;;;;;;;;;5026351;23;21568;-82
2021/12/13 00:18:15;;;;;;;239.90;50.03;;;;;;;;;;5006700;23;20264;-78
2021/12/13 00:20:44;;;;;;;246.30;49.70;;;;;;;;;;5008212;23;20285;-85
2021/12/13 00:23:22;;;;;;;249.87;49.70;;;;;;;;;;5040971;23;20214;-77
2021/12/13 00:25:50;;;;;;;223.37;48.13;;;;;;;;;;5027663;23;21595;-77
2021/12/13 00:28:18;;;;;;;276.53;53.77;;;;;;;;;;5016134;23;22222;-78
2021/12/13 00:30:47;;;;;;;235.43;49.20;;;;;;;;;;5013799;23;20207;-77
2021/12/13 00:33:26;;;;;;;242.73;47.30;;;;;;;;;;5021842;23;20217;-77
2021/12/13 00:36:13;;;;;;;275.50;49.87;;;;;;;;;;5010553;23;20218;-76
2021/12/13 00:38:49;;;;;;;258.53;48.77;;;;;;;;;;5000529;23;20610;-76
2021/12/13 00:41:18;;;;;;;225.73;46.90;;;;;;;;;;5004032;23;20291;-78
2021/12/13 00:43:56;;;;;;;281.03;50.47;;;;;;;;;;4990772;23;21534;-74
2021/12/13 00:46:25;;;;;;;238.73;48.50;;;;;;;;;;5023659;23;20209;-75
2021/12/13 00:48:54;;;;;;;232.50;47.37;;;;;;;;;;5004944;23;22060;-76
2021/12/13 00:51:25;;;;;;;272.73;50.20;;;;;;;;;;5037557;23;20220;-77
2021/12/13 00:53:53;;;;;;;303.20;51.60;;;;;;;;;;5010133;23;20235;-81
2021/12/13 00:56:38;;;;;;;283.20;49.93;;;;;;;;;;5003076;23;20306;-81
2021/12/13 00:59:05;;;;;;;276.07;49.17;;;;;;;;;;5010101;23;20767;-78
2021/12/13 01:01:32;;;;;;;266.37;49.23;;;;;;;;;;5021477;23;20244;-79
2021/12/13 01:03:59;;;;;;;254.57;49.00;;;;;;;;;;5036069;23;22140;-78
2021/12/13 01:06:47;;;;;;;249.47;48.23;;;;;;;;;;5025045;23;20201;-80
2021/12/13 01:09:32;;;;;;;235.33;47.47;;;;;;;;;;5035247;23;23123;-80
2021/12/13 01:12:01;;;;;;;268.10;49.20;;;;;;;;;;5026751;23;21251;-80
2021/12/13 01:14:36;;;;;;;222.47;47.70;;;;;;;;;;5013993;23;21174;-80
2021/12/13 01:17:27;;;;;;;251.00;45.07;;;;;;;;;;5028786;23;20285;-83
2021/12/13 01:20:05;;;;;;;244.57;46.50;;;;;;;;;;5027691;23;21155;-81
2021/12/13 01:22:57;;;;;;;225.23;43.37;;;;;;;;;;5013257;23;24972;-87
2021/12/13 01:26:00;;;;;;;190.60;40.73;;;;;;;;;;5007565;23;20210;-82
2021/12/13 01:28:31;;;;;;;222.43;44.00;;;;;;;;;;5029889;23;20207;-85
2021/12/13 01:31:03;;;;;;;219.87;43.73;;;;;;;;;;5027932;23;20328;-83
2021/12/13 01:33:31;;;;;;;209.70;45.77;;;;;;;;;;5012570;23;20212;-81
2021/12/13 01:36:00;;;;;;;190.83;41.43;;;;;;;;;;5014292;23;20232;-80
2021/12/13 01:38:33;;;;;;;208.40;43.97;;;;;;;;;;5010850;23;20385;-82
2021/12/13 01:41:08;;;;;;;193.63;41.70;;;;;;;;;;5033242;23;20645;-83
2021/12/13 01:43:36;;;;;;;214.50;42.60;;;;;;;;;;5011873;23;20213;-81
2021/12/13 01:46:02;;;;;;;203.90;43.93;;;;;;;;;;5032519;23;20207;-82
2021/12/13 01:48:33;;;;;;;192.17;42.23;;;;;;;;;;5055828;23;20217;-79
2021/12/13 01:51:05;;;;;;;188.67;40.73;;;;;;;;;;5020428;23;20221;-83
2021/12/13 01:53:34;;;;;;;189.53;42.07;;;;;;;;;;5015867;23;20217;-82
2021/12/13 01:56:08;;;;;;;209.03;43.57;;;;;;;;;;5032118;23;20741;-86
2021/12/13 01:58:41;;;;;;;188.90;43.20;;;;;;;;;;5014734;23;20376;-83
2021/12/13 02:01:14;;;;;;;178.53;42.30;;;;;;;;;;5038201;23;20206;-79
2021/12/13 02:03:43;;;;;;;216.13;44.07;;;;;;;;;;5014589;23;20202;-81
2021/12/13 02:06:12;;;;;;;204.67;44.57;;;;;;;;;;5026071;23;20217;-77
2021/12/13 02:08:38;;;;;;;209.80;43.97;;;;;;;;;;5009567;23;20286;-83
2021/12/13 02:11:05;;;;;;;224.60;46.77;;;;;;;;;;5036735;23;25555;-82
2021/12/13 02:13:38;;;;;;;236.10;45.90;;;;;;;;;;5031597;23;20202;-79
2021/12/13 02:18:52;;;;;;;209.47;45.13;;;;;;;;;;5019510;23;20377;-80
2021/12/13 02:21:31;;;;;;;245.63;48.00;;;;;;;;;;5022718;23;20396;-81
2021/12/13 02:24:09;;;;;;;208.47;44.83;;;;;;;;;;5006086;23;20683;-83
2021/12/13 02:26:37;;;;;;;269.67;51.37;;;;;;;;;;5010468;23;20564;-85
2021/12/13 02:29:11;;;;;;;278.13;52.47;;;;;;;;;;5026732;23;20230;-85
2021/12/13 02:31:39;;;;;;;317.50;54.10;;;;;;;;;;5018568;23;20270;-83
2021/12/13 02:34:07;;;;;;;245.53;48.03;;;;;;;;;;5029461;23;20575;-79
2021/12/13 02:36:41;;;;;;;258.03;50.83;;;;;;;;;;5022707;23;24976;-82
2021/12/13 02:39:10;;;;;;;319.00;51.80;;;;;;;;;;5023743;23;20214;-80
2021/12/13 02:41:37;;;;;;;270.20;51.40;;;;;;;;;;5014907;23;20207;-79
2021/12/13 02:44:14;;;;;;;268.07;51.57;;;;;;;;;;5021734;23;20206;-79
2021/12/13 02:46:40;;;;;;;351.90;52.70;;;;;;;;;;5022191;23;20235;-82
2021/12/13 02:49:09;;;;;;;252.53;47.67;;;;;;;;;;5028352;23;20675;-81
2021/12/13 02:51:55;;;;;;;244.33;47.93;;;;;;;;;;5006000;23;20210;-80
2021/12/13 02:54:23;;;;;;;219.73;44.67;;;;;;;;;;5022700;23;20945;-83
2021/12/13 02:57:06;;;;;;;235.80;43.80;;;;;;;;;;5028823;23;20326;-84
2021/12/13 02:59:34;;;;;;;265.83;45.73;;;;;;;;;;5015383;23;20221;-79
2021/12/13 03:02:01;;;;;;;240.00;44.77;;;;;;;;;;5024934;23;20218;-84
2021/12/13 03:04:29;;;;;;;237.30;44.10;;;;;;;;;;5035907;23;21361;-81
2021/12/13 03:06:58;;;;;;;231.63;43.97;;;;;;;;;;5014815;23;20229;-78
2021/12/13 03:09:26;;;;;;;236.97;46.30;;;;;;;;;;5014467;23;20683;-79
2021/12/13 03:11:53;;;;;;;228.13;43.83;;;;;;;;;;4994714;23;22102;-80
2021/12/13 03:14:24;;;;;;;238.10;45.63;;;;;;;;;;5028148;23;21035;-82
2021/12/13 03:16:51;;;;;;;244.73;44.93;;;;;;;;;;5000050;23;22146;-82
2021/12/13 03:19:23;;;;;;;221.63;45.23;;;;;;;;;;5002261;23;20657;-82
2021/12/13 03:21:55;;;;;;;226.83;45.67;;;;;;;;;;5018713;23;20205;-79
2021/12/13 03:24:26;;;;;;;197.60;41.43;;;;;;;;;;5014248;23;22616;-80
2021/12/13 03:26:57;;;;;;;194.30;40.87;;;;;;;;;;5034572;23;20293;-78
2021/12/13 03:29:42;;;;;;;185.60;39.80;;;;;;;;;;5019017;23;21142;-79
2021/12/13 03:32:12;;;;;;;174.47;38.07;;;;;;;;;;4995952;23;22840;-79
2021/12/13 03:34:40;;;;;;;181.83;38.07;;;;;;;;;;5001955;23;23420;-78
2021/12/13 03:37:08;;;;;;;185.53;39.23;;;;;;;;;;5006982;23;21643;-78
2021/12/13 03:39:38;;;;;;;173.03;37.57;;;;;;;;;;4999495;23;20258;-80
2021/12/13 03:42:07;;;;;;;180.20;37.23;;;;;;;;;;5047083;23;20206;-78
2021/12/13 03:44:35;;;;;;;175.63;37.67;;;;;;;;;;5018988;23;20210;-80
2021/12/13 03:47:25;;;;;;;170.67;35.53;;;;;;;;;;4998612;23;20206;-78
2021/12/13 03:49:53;;;;;;;197.50;36.57;;;;;;;;;;5024756;23;23118;-79
2021/12/13 03:52:21;;;;;;;169.23;35.87;;;;;;;;;;5005864;23;20206;-81
2021/12/13 03:54:49;;;;;;;175.67;36.83;;;;;;;;;;5023439;23;20221;-78
2021/12/13 03:57:16;;;;;;;146.97;34.47;;;;;;;;;;5010684;23;20225;-79
2021/12/13 03:59:44;;;;;;;171.33;36.83;;;;;;;;;;5046433;23;20217;-78
2021/12/13 04:02:14;;;;;;;164.30;35.57;;;;;;;;;;5001986;23;20209;-79
2021/12/13 04:04:46;;;;;;;151.87;35.87;;;;;;;;;;5017740;23;20210;-78
2021/12/13 04:07:15;;;;;;;153.53;33.93;;;;;;;;;;5010459;23;20254;-79
2021/12/13 04:09:42;;;;;;;159.23;34.13;;;;;;;;;;5018797;23;20202;-79
2021/12/13 04:12:09;;;;;;;159.50;34.97;;;;;;;;;;5003083;23;20254;-80
2021/12/13 04:14:43;;;;;;;144.97;32.67;;;;;;;;;;5029312;23;22344;-77
2021/12/13 04:17:23;;;;;;;151.00;32.07;;;;;;;;;;5003413;23;20372;-78
2021/12/13 04:19:52;;;;;;;167.90;33.63;;;;;;;;;;5022167;23;20206;-80
2021/12/13 04:22:19;;;;;;;149.90;33.17;;;;;;;;;;5024192;23;20911;-78
2021/12/13 04:24:52;;;;;;;177.47;36.87;;;;;;;;;;5019058;23;20209;-78
2021/12/13 04:27:24;;;;;;;178.43;34.70;;;;;;;;;;5002302;23;20213;-80
2021/12/13 04:29:52;;;;;;;142.43;32.27;;;;;;;;;;5025384;23;20308;-78
2021/12/13 04:32:20;;;;;;;158.93;33.87;;;;;;;;;;5003132;23;20250;-79
2021/12/13 04:34:49;;;;;;;170.40;35.47;;;;;;;;;;5003566;23;21763;-78
2021/12/13 04:37:18;;;;;;;193.13;36.97;;;;;;;;;;5001409;23;22396;-77
2021/12/13 04:39:45;;;;;;;158.73;33.70;;;;;;;;;;5000792;23;20270;-79
2021/12/13 04:42:14;;;;;;;141.60;34.20;;;;;;;;;;5010845;23;20207;-78
2021/12/13 04:44:47;;;;;;;147.23;31.80;;;;;;;;;;5034183;23;20231;-78
2021/12/13 04:47:15;;;;;;;166.50;32.97;;;;;;;;;;5035210;23;22098;-82
2021/12/13 04:49:46;;;;;;;147.13;31.90;;;;;;;;;;5020706;23;23199;-78
2021/12/13 04:52:14;;;;;;;158.00;32.93;;;;;;;;;;5006073;23;20280;-78
2021/12/13 04:54:42;;;;;;;267.07;37.33;;;;;;;;;;5010058;23;20205;-79
2021/12/13 04:57:09;;;;;;;247.87;34.50;;;;;;;;;;4982231;23;20210;-79
2021/12/13 04:59:35;;;;;;;269.53;35.83;;;;;;;;;;4993949;23;21173;-79
2021/12/13 05:02:04;;;;;;;239.60;34.67;;;;;;;;;;4996837;23;20417;-79
2021/12/13 05:04:31;;;;;;;161.63;33.10;;;;;;;;;;4999258;23;20203;-80
2021/12/13 05:06:59;;;;;;;153.53;33.33;;;;;;;;;;4996204;23;21173;-82
2021/12/13 05:09:26;;;;;;;166.90;32.93;;;;;;;;;;4992004;23;20464;-78
2021/12/13 05:11:52;;;;;;;147.87;32.70;;;;;;;;;;4984901;23;20203;-79
2021/12/13 05:14:37;;;;;;;155.97;33.40;;;;;;;;;;5004178;23;20206;-82
2021/12/13 05:17:12;;;;;;;134.00;29.57;;;;;;;;;;5005965;23;20257;-81
2021/12/13 05:19:40;;;;;;;138.50;30.63;;;;;;;;;;4977400;23;20202;-79
2021/12/13 05:22:08;;;;;;;153.37;33.93;;;;;;;;;;4994984;23;21593;-78
2021/12/13 05:24:40;;;;;;;152.43;32.87;;;;;;;;;;4990712;23;20206;-78
2021/12/13 05:27:09;;;;;;;139.57;31.57;;;;;;;;;;5003822;23;20461;-78
2021/12/13 05:29:41;;;;;;;151.30;32.13;;;;;;;;;;4992813;23;23027;-81
2021/12/13 05:32:11;;;;;;;148.87;31.93;;;;;;;;;;4998079;23;20215;-80
2021/12/13 05:34:41;;;;;;;157.20;33.10;;;;;;;;;;4990598;23;20537;-81
2021/12/13 05:37:08;;;;;;;164.83;35.27;;;;;;;;;;4981605;23;22569;-80
2021/12/13 05:39:35;;;;;;;166.93;34.00;;;;;;;;;;4986832;23;22009;-79
2021/12/13 05:42:09;;;;;;;134.20;31.83;;;;;;;;;;4999817;23;21089;-81
2021/12/13 05:44:40;;;;;;;149.20;30.50;;;;;;;;;;4997175;23;20273;-79
2021/12/13 05:47:16;;;;;;;145.47;32.17;;;;;;;;;;4992122;23;20472;-79
2021/12/13 05:49:43;;;;;;;148.10;31.50;;;;;;;;;;5003317;23;21106;-79
2021/12/13 05:52:12;;;;;;;126.00;30.23;;;;;;;;;;4991790;23;20258;-81
2021/12/13 05:54:58;;;;;;;132.97;30.80;;;;;;;;;;4998491;23;20235;-78
2021/12/13 05:57:30;;;;;;;171.93;32.07;;;;;;;;;;4991251;23;21719;-80
2021/12/13 06:00:03;;;;;;;168.07;33.37;;;;;;;;;;5002526;23;20207;-79
2021/12/13 06:02:48;;;;;;;148.03;33.03;;;;;;;;;;4998444;23;20211;-77
2021/12/13 06:05:17;;;;;;;165.67;33.27;;;;;;;;;;4985907;23;20205;-78
2021/12/13 06:07:51;;;;;;;132.13;30.47;;;;;;;;;;4994429;23;27112;-81
2021/12/13 06:10:21;;;;;;;126.00;29.30;;;;;;;;;;4999493;23;22483;-78
2021/12/13 06:12:50;;;;;;;137.43;30.57;;;;;;;;;;5006414;23;25460;-79
2021/12/13 06:15:16;;;;;;;145.17;31.80;;;;;;;;;;4993067;23;21195;-81
2021/12/13 06:17:44;;;;;;;144.67;32.60;;;;;;;;;;4993700;23;20210;-78
2021/12/13 06:20:13;;;;;;;147.93;30.13;;;;;;;;;;4995513;23;20207;-79
2021/12/13 06:22:40;;;;;;;164.73;31.07;;;;;;;;;;4996716;23;21103;-79
2021/12/13 06:25:12;;;;;;;131.73;29.60;;;;;;;;;;4974330;23;20710;-81
2021/12/13 06:27:43;;;;;;;147.40;31.20;;;;;;;;;;4993561;23;20203;-79
2021/12/13 06:30:17;;;;;;;145.77;31.07;;;;;;;;;;4991784;23;20646;-80
2021/12/13 06:32:46;;;;;;;145.80;32.13;;;;;;;;;;4989412;23;20207;-77
2021/12/13 06:35:33;;;;;;;172.53;31.90;;;;;;;;;;4994370;23;20276;-80
2021/12/13 06:38:19;;;;;;;137.27;31.83;;;;;;;;;;4995163;23;20210;-79
2021/12/13 06:40:47;;;;;;;185.23;34.43;;;;;;;;;;4994818;23;20274;-80
2021/12/13 06:43:25;;;;;;;190.53;31.13;;;;;;;;;;5000257;23;21491;-79
2021/12/13 06:45:51;;;;;;;165.63;33.87;;;;;;;;;;5003717;23;20309;-81
2021/12/13 06:48:18;;;;;;;150.00;32.97;;;;;;;;;;4999421;23;20229;-81
2021/12/13 06:50:46;;;;;;;146.57;31.33;;;;;;;;;;4992141;23;20624;-79
2021/12/13 06:53:17;;;;;;;172.00;33.20;;;;;;;;;;4998077;23;20207;-77
2021/12/13 06:55:45;;;;;;;166.90;30.77;;;;;;;;;;5007284;23;20323;-79
2021/12/13 06:58:18;;;;;;;161.30;31.40;;;;;;;;;;4987209;23;21199;-78
2021/12/13 07:00:45;;;;;;;155.30;32.20;;;;;;;;;;4975323;23;23572;-81
2021/12/13 07:03:17;;;;;;;155.00;31.30;;;;;;;;;;5005433;23;20256;-79
2021/12/13 07:05:45;;;;;;;174.17;31.77;;;;;;;;;;4990645;23;20203;-78
2021/12/13 07:08:16;;;;;;;156.50;31.60;;;;;;;;;;5024522;23;20264;-77
2021/12/13 07:10:45;;;;;;;134.70;31.27;;;;;;;;;;5010918;23;20240;-77
2021/12/13 07:13:22;;;;;;;162.37;31.10;;;;;;;;;;4984476;23;20320;-79
2021/12/13 07:15:54;;;;;;;176.43;31.83;;;;;;;;;;5008770;23;20205;-75
2021/12/13 07:18:30;;;;;;;133.03;29.67;;;;;;;;;;5058684;23;20800;-77
2021/12/13 07:21:03;;;;;;;155.50;30.73;;;;;;;;;;5044652;23;20291;-76
2021/12/13 07:24:07;;;;;;;166.77;33.07;;;;;;;;;;5036830;23;20596;-75
2021/12/13 07:26:37;;;;;;;149.77;31.00;;;;;;;;;;4974999;23;20217;-76
2021/12/13 07:29:06;;;;;;;154.87;32.27;;;;;;;;;;5002700;23;22366;-75
2021/12/13 07:31:32;;;;;;;165.90;32.70;;;;;;;;;;5013707;23;20209;-79
2021/12/13 07:34:06;;;;;;;166.90;34.40;;;;;;;;;;5034376;23;20213;-75
2021/12/13 07:36:32;;;;;;;176.27;34.37;;;;;;;;;;5021844;23;20260;-79
2021/12/13 07:39:01;;;;;;;152.47;35.37;;;;;;;;;;4995815;23;20210;-78
2021/12/13 07:41:37;;;;;;;156.83;34.17;;;;;;;;;;5026152;23;20474;-76
2021/12/13 07:44:04;;;;;;;150.83;32.93;;;;;;;;;;5025294;23;20485;-77
2021/12/13 07:46:31;;;;;;;169.77;33.50;;;;;;;;;;5034494;23;22047;-77
2021/12/13 07:49:08;;;;;;;172.57;37.23;;;;;;;;;;5035965;23;21746;-75
2021/12/13 07:51:37;;;;;;;191.73;38.90;;;;;;;;;;5014457;23;20639;-77
2021/12/13 07:54:08;;;;;;;182.27;38.37;;;;;;;;;;5027748;23;20206;-79
2021/12/13 07:56:35;;;;;;;235.87;36.33;;;;;;;;;;5019731;23;20210;-78
2021/12/13 07:59:04;;;;;;;157.23;34.63;;;;;;;;;;5001686;23;20417;-79
2021/12/13 08:01:34;;;;;;;168.97;34.30;;;;;;;;;;4997224;23;20318;-77
2021/12/13 08:04:12;;;;;;;169.43;34.57;;;;;;;;;;4983491;23;20214;-75
2021/12/13 08:06:43;;;;;;;145.33;31.67;;;;;;;;;;5014395;23;20210;-76
2021/12/13 08:09:12;;;;;;;150.30;32.90;;;;;;;;;;5017977;23;20694;-76
2021/12/13 08:11:47;;;;;;;176.57;34.73;;;;;;;;;;5002277;23;20238;-78
2021/12/13 08:14:14;;;;;;;194.33;36.63;;;;;;;;;;5061865;23;21519;-77
2021/12/13 08:16:45;;;;;;;148.87;33.50;;;;;;;;;;4989375;23;21795;-77
2021/12/13 08:19:15;;;;;;;173.30;37.70;;;;;;;;;;5016203;23;20293;-75
2021/12/13 08:21:45;;;;;;;145.77;35.10;;;;;;;;;;5033533;23;21754;-79
2021/12/13 08:24:23;;;;;;;157.43;35.73;;;;;;;;;;5025110;23;22043;-78
2021/12/13 08:26:53;;;;;;;170.60;37.33;;;;;;;;;;5033236;23;20265;-78
2021/12/13 08:29:31;;;;;;;169.07;35.50;;;;;;;;;;5027430;23;20275;-79
2021/12/13 08:32:00;;;;;;;171.63;37.73;;;;;;;;;;5015627;23;20212;-77
2021/12/13 08:34:31;;;;;;;164.53;36.37;;;;;;;;;;5004042;23;21697;-80
2021/12/13 08:36:58;;;;;;;180.83;38.40;;;;;;;;;;5010259;23;20500;-77
2021/12/13 08:39:25;;;;;;;162.37;34.70;;;;;;;;;;5017940;23;20696;-78
2021/12/13 08:42:13;;;;;;;189.90;40.17;;;;;;;;;;5021810;23;20217;-82
2021/12/13 08:44:42;;;;;;;172.87;38.33;;;;;;;;;;4987094;23;20213;-80
2021/12/13 08:47:11;;;;;;;206.33;41.80;;;;;;;;;;4982175;23;20213;-79
2021/12/13 08:49:46;;;;;;;186.20;39.53;;;;;;;;;;5019576;23;20214;-77
2021/12/13 08:52:21;;;;;;;157.17;35.20;;;;;;;;;;5017707;23;20201;-76
2021/12/13 08:54:54;;;;;;;172.30;37.80;;;;;;;;;;5028997;23;20209;-79
2021/12/13 08:57:30;;;;;;;170.13;39.37;;;;;;;;;;5005046;23;21162;-79
2021/12/13 08:59:58;;;;;;;179.60;39.17;;;;;;;;;;5022674;23;20212;-80
2021/12/13 09:02:29;;;;;;;178.70;39.40;;;;;;;;;;4980797;23;21604;-86
2021/12/13 09:05:28;;;;;;;167.90;36.70;;;;;;;;;;5075841;23;21649;-79
2021/12/13 09:08:04;;;;;;;171.70;39.57;;;;;;;;;;4981759;23;21694;-80
2021/12/13 09:10:51;;;;;;;167.90;38.17;;;;;;;;;;5028936;23;20215;-82
2021/12/13 09:13:19;;;;;;;186.47;40.53;;;;;;;;;;5021265;23;21232;-83
2021/12/13 09:15:47;;;;;;;175.37;38.53;;;;;;;;;;4997305;23;20248;-78
2021/12/13 09:18:17;;;;;;;163.00;36.80;;;;;;;;;;4979529;23;20219;-82
2021/12/13 09:20:48;;;;;;;180.10;40.80;;;;;;;;;;4989700;23;20210;-80
2021/12/13 09:23:15;;;;;;;166.67;36.80;;;;;;;;;;5009563;23;22740;-77
2021/12/13 09:25:44;;;;;;;152.27;38.33;;;;;;;;;;5004019;23;20205;-81
2021/12/13 09:28:15;;;;;;;177.50;38.90;;;;;;;;;;4999538;23;21183;-74
2021/12/13 09:31:00;;;;;;;182.63;39.20;;;;;;;;;;4999984;23;23511;-76
2021/12/13 09:33:35;;;;;;;157.97;37.93;;;;;;;;;;4992678;23;20368;-75
2021/12/13 09:36:09;;;;;;;167.80;39.57;;;;;;;;;;5044608;23;20216;-76
2021/12/13 09:38:41;;;;;;;166.30;39.27;;;;;;;;;;5020509;23;20214;-76
2021/12/13 09:41:12;;;;;;;175.00;39.47;;;;;;;;;;5014223;23;20354;-75
2021/12/13 09:43:38;;;;;;;151.77;38.33;;;;;;;;;;5016455;23;22117;-75
2021/12/13 09:46:06;;;;;;;156.57;37.90;;;;;;;;;;5016526;23;20636;-74
2021/12/13 09:48:37;;;;;;;166.40;38.80;;;;;;;;;;5022235;23;20475;-86
2021/12/13 09:51:06;;;;;;;166.93;38.50;;;;;;;;;;5035143;23;20282;-81
2021/12/13 09:53:34;;;;;;;168.20;38.77;;;;;;;;;;5020065;23;20208;-78
2021/12/13 09:56:04;;;;;;;171.23;38.90;;;;;;;;;;5032254;23;20215;-79
2021/12/13 09:58:44;;;;;;;161.93;36.97;;;;;;;;;;5002804;23;20272;-81
2021/12/13 10:01:17;;;;;;;150.93;36.17;;;;;;;;;;4993175;23;21173;-81
2021/12/13 10:03:58;;;;;;;151.63;37.87;;;;;;;;;;4995510;23;22743;-80
2021/12/13 10:06:30;;;;;;;161.87;36.53;;;;;;;;;;5017413;23;22773;-81
2021/12/13 10:09:05;;;;;;;163.17;37.00;;;;;;;;;;4990179;23;20226;-79
2021/12/13 10:11:43;;;;;;;160.70;37.13;;;;;;;;;;5020273;23;20266;-78
2021/12/13 10:14:11;;;;;;;159.63;36.63;;;;;;;;;;5006628;23;20369;-81
2021/12/13 10:16:40;;;;;;;164.60;38.37;;;;;;;;;;5018434;23;21614;-83
2021/12/13 10:19:08;;;;;;;144.90;35.43;;;;;;;;;;5000652;23;20207;-80
2021/12/13 10:21:39;;;;;;;166.57;37.13;;;;;;;;;;4984304;23;21970;-79
2021/12/13 10:24:15;;;;;;;148.33;35.37;;;;;;;;;;5037496;23;21149;-82
2021/12/13 10:26:44;;;;;;;157.23;36.80;;;;;;;;;;5004374;23;21439;-75
2021/12/13 10:29:32;;;;;;;151.73;36.13;;;;;;;;;;5010297;23;20277;-80
2021/12/13 10:32:04;;;;;;;159.13;37.07;;;;;;;;;;5010700;23;20216;-78
2021/12/13 10:34:33;;;;;;;173.30;40.50;;;;;;;;;;5005607;23;22799;-76
2021/12/13 10:37:05;;;;;;;174.00;42.50;;;;;;;;;;5016554;23;20221;-76
2021/12/13 10:39:36;;;;;;;171.03;38.70;;;;;;;;;;4982623;23;21995;-77
2021/12/13 10:42:05;;;;;;;157.43;37.40;;;;;;;;;;5026282;23;20425;-77
2021/12/13 10:44:32;;;;;;;137.53;35.77;;;;;;;;;;4999228;23;20277;-80
2021/12/13 10:47:04;;;;;;;161.33;39.17;;;;;;;;;;5009131;23;20249;-77
2021/12/13 10:49:32;;;;;;;151.47;38.50;;;;;;;;;;4999546;23;20214;-77
2021/12/13 10:52:01;;;;;;;165.73;39.53;;;;;;;;;;4976902;23;20209;-75
2021/12/13 10:54:33;;;;;;;163.43;39.40;;;;;;;;;;5002189;23;20202;-79
2021/12/13 10:57:03;;;;;;;162.97;39.07;;;;;;;;;;5004950;23;25687;-77
2021/12/13 10:59:31;;;;;;;175.87;41.33;;;;;;;;;;4996815;23;20210;-78
2021/12/13 11:02:01;;;;;;;168.07;39.83;;;;;;;;;;4994448;23;20209;-80
2021/12/13 11:04:33;;;;;;;174.53;39.77;;;;;;;;;;5012627;23;20206;-80
2021/12/13 11:07:00;;;;;;;156.93;39.90;;;;;;;;;;4992757;23;20210;-81
2021/12/13 11:09:27;;;;;;;154.53;39.63;;;;;;;;;;5012021;23;20213;-77
2021/12/13 11:12:03;;;;;;;154.00;37.93;;;;;;;;;;5025329;23;20206;-82
2021/12/13 11:14:32;;;;;;;163.73;40.60;;;;;;;;;;5004570;23;21225;-83
2021/12/13 11:17:02;;;;;;;157.67;40.27;;;;;;;;;;5006232;23;20206;-79
2021/12/13 11:19:32;;;;;;;165.13;39.07;;;;;;;;;;5015235;23;20486;-77
2021/12/13 11:22:02;;;;;;;171.57;39.30;;;;;;;;;;4989050;23;21612;-79
2021/12/13 11:24:30;;;;;;;145.20;37.90;;;;;;;;;;5001770;23;22046;-81
2021/12/13 11:26:59;;;;;;;149.90;38.30;;;;;;;;;;5001129;23;21549;-79
2021/12/13 11:29:27;;;;;;;157.53;39.30;;;;;;;;;;5012606;23;24708;-79
2021/12/13 11:31:55;;;;;;;171.10;38.90;;;;;;;;;;4987377;23;20202;-82
2021/12/13 11:34:40;;;;;;;167.97;38.93;;;;;;;;;;5018729;23;20216;-77
2021/12/13 11:37:26;;;;;;;168.80;39.33;;;;;;;;;;4994459;23;20566;-79
2021/12/13 11:40:02;;;;;;;162.37;37.47;;;;;;;;;;5013264;23;20212;-82
2021/12/13 11:42:29;;;;;;;159.30;37.20;;;;;;;;;;5007999;23;25463;-87
2021/12/13 11:44:58;;;;;;;155.30;35.67;;;;;;;;;;4992683;23;21056;-88
2021/12/13 11:47:36;;;;;;;153.37;36.57;;;;;;;;;;5020848;23;20376;-86
2021/12/13 11:50:03;;;;;;;148.17;37.77;;;;;;;;;;5008101;23;21703;-86
2021/12/13 11:52:34;;;;;;;142.57;33.97;;;;;;;;;;4984214;23;21149;-83
2021/12/13 11:55:19;;;;;;;131.27;33.97;;;;;;;;;;5003740;23;21082;-79
2021/12/13 11:58:04;;;;;;;144.63;34.80;;;;;;;;;;4988587;23;20311;-79
2021/12/13 12:00:42;;;;;;;155.37;40.07;;;;;;;;;;4992495;23;21119;-79
2021/12/13 12:03:43;;;;;;;124.27;34.40;;;;;;;;;;4983685;23;21280;-78
2021/12/13 12:06:41;;;;;;;139.10;37.07;;;;;;;;;;4988228;23;20218;-79
2021/12/13 12:09:24;;;;;;;146.77;35.57;;;;;;;;;;4976236;23;20755;-81
2021/12/13 12:12:02;;;;;;;160.60;37.13;;;;;;;;;;4985324;23;20617;-85
2021/12/13 12:14:29;;;;;;;154.17;37.90;;;;;;;;;;4999381;23;20247;-84
2021/12/13 12:16:58;;;;;;;171.73;39.63;;;;;;;;;;4989455;23;20754;-85
2021/12/13 12:19:27;;;;;;;145.57;37.63;;;;;;;;;;4982119;23;21428;-86
2021/12/13 12:21:59;;;;;;;150.73;37.17;;;;;;;;;;4996411;23;20583;-84
2021/12/13 12:24:28;;;;;;;137.60;34.40;;;;;;;;;;5000004;23;20299;-84
2021/12/13 12:26:57;;;;;;;166.97;46.37;;;;;;;;;;5004888;23;20215;-82
2021/12/13 12:29:27;;;;;;;148.33;36.80;;;;;;;;;;5032764;23;20611;-88
2021/12/13 12:31:58;;;;;;;151.70;36.47;;;;;;;;;;5064678;23;20209;-88
2021/12/13 12:34:25;;;;;;;135.53;35.20;;;;;;;;;;5077141;23;22046;-90
2021/12/13 12:36:58;;;;;;;153.70;35.80;;;;;;;;;;5041250;23;20206;-88
2021/12/13 12:39:38;;;;;;;167.33;38.80;;;;;;;;;;5047033;23;20363;-85
2021/12/13 12:42:16;;;;;;;151.23;38.43;;;;;;;;;;5037833;23;20213;-86
2021/12/13 12:44:55;;;;;;;144.80;36.70;;;;;;;;;;4996558;23;21744;-88
2021/12/13 12:47:34;;;;;;;153.33;38.00;;;;;;;;;;4984169;23;22655;-83
2021/12/13 12:50:22;;;;;;;141.97;38.77;;;;;;;;;;5001615;23;20205;-83
2021/12/13 12:52:50;;;;;;;143.77;36.60;;;;;;;;;;5000011;23;21100;-85
2021/12/13 12:55:19;;;;;;;145.33;36.70;;;;;;;;;;4999159;23;21580;-83
2021/12/13 12:57:45;;;;;;;161.87;36.47;;;;;;;;;;4987409;23;20212;-85
2021/12/13 13:00:12;;;;;;;134.80;35.23;;;;;;;;;;4999059;23;20711;-85
2021/12/13 13:02:47;;;;;;;142.30;36.13;;;;;;;;;;4988127;23;20896;-81
2021/12/13 13:05:14;;;;;;;144.40;35.97;;;;;;;;;;5005457;23;20241;-85
2021/12/13 13:07:41;;;;;;;143.90;36.67;;;;;;;;;;4993427;23;21738;-86
2021/12/13 13:12:54;;;;;;;136.20;35.83;;;;;;;;;;5028371;23;20306;-80
2021/12/13 13:15:27;;;;;;;153.37;36.50;;;;;;;;;;4978290;23;22397;-81
2021/12/13 13:18:02;;;;;;;143.03;37.57;;;;;;;;;;4999551;23;20214;-80
2021/12/13 13:20:34;;;;;;;147.80;40.33;;;;;;;;;;4997324;23;20425;-81
2021/12/13 13:23:01;;;;;;;154.77;39.10;;;;;;;;;;5028815;23;20210;-83
2021/12/13 13:25:33;;;;;;;143.23;36.73;;;;;;;;;;4998698;23;21141;-80
2021/12/13 13:28:00;;;;;;;169.17;41.20;;;;;;;;;;5009122;23;20203;-81
2021/12/13 13:30:32;;;;;;;156.57;40.30;;;;;;;;;;5039353;23;21724;-79
2021/12/13 13:32:59;;;;;;;135.23;36.40;;;;;;;;;;5001362;23;21247;-83
2021/12/13 13:35:25;;;;;;;141.00;36.77;;;;;;;;;;5047106;23;21311;-88
2021/12/13 13:38:01;;;;;;;149.93;38.30;;;;;;;;;;5022904;23;20208;-84
2021/12/13 13:40:30;;;;;;;159.47;38.77;;;;;;;;;;5005593;23;20262;-82
2021/12/13 13:43:01;;;;;;;145.70;40.43;;;;;;;;;;4994112;23;21447;-86
2021/12/13 13:45:29;;;;;;;159.07;39.13;;;;;;;;;;5015107;23;20210;-78
2021/12/13 13:47:57;;;;;;;141.83;36.83;;;;;;;;;;5017066;23;20230;-81
2021/12/13 13:50:35;;;;;;;139.97;37.23;;;;;;;;;;5047217;23;20732;-87
2021/12/13 13:53:03;;;;;;;139.77;36.50;;;;;;;;;;5028867;23;20389;-82
2021/12/13 13:55:41;;;;;;;146.00;37.93;;;;;;;;;;4972120;23;20277;-84
2021/12/13 13:58:10;;;;;;;148.80;38.93;;;;;;;;;;5026203;23;20416;-81
2021/12/13 14:00:39;;;;;;;150.87;37.93;;;;;;;;;;5000039;23;20211;-84
2021/12/13 14:03:06;;;;;;;158.60;39.30;;;;;;;;;;5029467;23;20216;-81
2021/12/13 14:05:34;;;;;;;159.53;39.17;;;;;;;;;;5015210;23;20694;-81
2021/12/13 14:08:00;;;;;;;150.50;36.60;;;;;;;;;;5000709;23;20273;-82
2021/12/13 14:10:27;;;;;;;148.37;36.57;;;;;;;;;;5010926;23;21374;-78
2021/12/13 14:13:01;;;;;;;141.57;35.20;;;;;;;;;;4989324;23;22627;-78
2021/12/13 14:15:30;;;;;;;140.97;34.80;;;;;;;;;;5006551;23;20245;-79
2021/12/13 14:18:02;;;;;;;175.30;36.80;;;;;;;;;;5012941;23;20208;-80
2021/12/13 14:20:34;;;;;;;158.13;36.53;;;;;;;;;;4998741;23;20388;-83
2021/12/13 14:23:21;;;;;;;158.57;35.30;;;;;;;;;;5035220;23;20293;-80
2021/12/13 14:26:07;;;;;;;143.33;34.60;;;;;;;;;;5002147;23;21088;-83
2021/12/13 14:28:39;;;;;;;150.97;36.67;;;;;;;;;;5014283;23;22086;-82
2021/12/13 14:31:08;;;;;;;153.37;36.93;;;;;;;;;;4991136;23;21501;-80
2021/12/13 14:33:39;;;;;;;144.70;34.93;;;;;;;;;;5026655;23;20217;-79
2021/12/13 14:36:08;;;;;;;144.73;34.43;;;;;;;;;;5010599;23;20206;-80